Time;durP1;ratioP1;P1;durP2;ratioP2;P2;SDS_P1;SDS_P2;PMS_P1;PMS_P2;Temp;Humidity;BMP_temperature;BMP_pressure;BME280_temperature;BME280_humidity;BME280_pressure;Samples;Min_cycle;Max_cycle;Signal;HPM_P1;HPM_P2
2023/09/24 00:00:21;;;;;;;1.77;1.55;;;;;;;12.94;100.00;101914.09;6228225;28;20450;-72
2023/09/24 00:03:23;;;;;;;1.60;1.40;;;;;;;12.92;100.00;101919.44;6228482;28;20362;-72
2023/09/24 00:06:25;;;;;;;2.15;1.83;;;;;;;12.94;100.00;101922.88;6228897;28;20053;-74
2023/09/24 00:09:26;;;;;;;8.90;1.70;;;;;;;12.92;100.00;101930.00;6228042;28;20053;-72
2023/09/24 00:12:29;;;;;;;4.05;1.80;;;;;;;12.86;100.00;101930.28;6228514;28;20049;-72
2023/09/24 00:15:33;;;;;;;3.38;1.80;;;;;;;12.83;100.00;101933.03;6228219;28;20060;-71
2023/09/24 00:18:35;;;;;;;1.88;1.52;;;;;;;12.79;100.00;101938.50;6228169;28;20046;-71
2023/09/24 00:21:37;;;;;;;2.40;1.90;;;;;;;12.75;100.00;101936.94;6228061;28;20053;-71
2023/09/24 00:24:38;;;;;;;1.38;1.27;;;;;;;12.78;100.00;101932.38;6227996;28;20431;-72
2023/09/24 00:27:41;;;;;;;6.47;1.77;;;;;;;12.80;100.00;101938.44;6227808;28;20113;-72
2023/09/24 00:30:43;;;;;;;1.63;1.48;;;;;;;12.76;100.00;101936.84;6227884;28;20053;-72
2023/09/24 00:33:44;;;;;;;2.17;1.60;;;;;;;12.78;100.00;101945.56;6227821;28;20497;-72
2023/09/24 00:36:50;;;;;;;3.42;1.55;;;;;;;12.74;100.00;101948.41;6227616;28;20346;-72
2023/09/24 00:39:51;;;;;;;6.05;2.03;;;;;;;12.69;100.00;101957.38;6227690;28;20061;-71
2023/09/24 00:42:54;;;;;;;2.10;1.40;;;;;;;12.66;100.00;101957.50;6227611;28;20050;-73
2023/09/24 00:45:57;;;;;;;2.78;1.55;;;;;;;12.64;100.00;101969.06;6227010;28;20046;-73
2023/09/24 00:48:59;;;;;;;2.58;1.10;;;;;;;12.63;100.00;101964.72;6227178;28;20096;-72
2023/09/24 00:52:01;;;;;;;1.75;1.38;;;;;;;12.59;100.00;101963.97;6227630;28;20576;-73
2023/09/24 00:55:06;;;;;;;2.55;1.60;;;;;;;12.54;100.00;101971.22;6227279;28;20046;-73
2023/09/24 00:58:10;;;;;;;2.25;1.40;;;;;;;12.51;100.00;101968.69;6224900;28;20053;-71
2023/09/24 01:01:12;;;;;;;2.22;1.40;;;;;;;12.48;100.00;101970.59;6188784;28;20058;-72
2023/09/24 01:04:14;;;;;;;4.30;1.75;;;;;;;12.44;100.00;101968.13;6183004;28;20054;-72
2023/09/24 01:07:15;;;;;;;2.80;1.63;;;;;;;12.40;100.00;101978.84;6186536;28;20375;-72
2023/09/24 01:10:17;;;;;;;4.50;1.52;;;;;;;12.41;100.00;101980.56;6188692;28;20046;-72
2023/09/24 01:13:20;;;;;;;3.15;1.40;;;;;;;12.38;100.00;101976.25;6190527;28;20152;-71
2023/09/24 01:16:21;;;;;;;2.80;1.58;;;;;;;12.32;100.00;101976.50;6200102;28;20087;-72
2023/09/24 01:19:23;;;;;;;3.25;1.90;;;;;;;12.25;100.00;101982.09;6200412;28;20050;-72
2023/09/24 01:22:28;;;;;;;2.53;1.67;;;;;;;12.19;100.00;101984.06;6205255;28;20354;-71
2023/09/24 01:25:34;;;;;;;2.42;1.58;;;;;;;12.16;100.00;101989.44;6197517;28;20333;-71
2023/09/24 01:28:35;;;;;;;3.28;2.30;;;;;;;12.13;100.00;101981.69;6188957;28;20428;-71
2023/09/24 01:31:38;;;;;;;4.05;2.30;;;;;;;12.10;100.00;101983.56;6190279;28;20050;-69
2023/09/24 01:34:39;;;;;;;2.53;1.73;;;;;;;12.08;100.00;101988.91;6186772;28;20083;-70
2023/09/24 01:37:42;;;;;;;4.30;1.85;;;;;;;12.04;100.00;101997.84;6215148;28;20058;-70
2023/09/24 01:40:43;;;;;;;2.17;1.85;;;;;;;12.00;100.00;101998.88;6221702;28;20053;-70
2023/09/24 01:43:45;;;;;;;2.83;2.03;;;;;;;12.01;100.00;101997.13;6215284;28;20130;-70
2023/09/24 01:46:47;;;;;;;3.45;2.13;;;;;;;11.99;100.00;101996.28;6222069;28;20419;-70
2023/09/24 01:49:49;;;;;;;2.22;1.77;;;;;;;11.95;100.00;102000.84;6226242;28;20050;-70
2023/09/24 01:52:52;;;;;;;3.20;2.28;;;;;;;11.88;100.00;101997.59;6218187;28;20058;-70
2023/09/24 01:55:53;;;;;;;8.70;2.25;;;;;;;11.88;100.00;102002.84;6216710;28;20046;-70
2023/09/24 01:58:55;;;;;;;3.10;2.00;;;;;;;11.83;100.00;101999.53;6225905;28;20050;-70
2023/09/24 02:01:56;;;;;;;2.85;1.70;;;;;;;11.86;100.00;101995.94;6222561;28;20056;-70
2023/09/24 02:04:58;;;;;;;2.30;1.63;;;;;;;11.89;100.00;102003.69;6217871;28;20081;-70
2023/09/24 02:08:00;;;;;;;2.22;1.75;;;;;;;11.91;100.00;102008.00;6225965;28;20140;-70
2023/09/24 02:11:03;;;;;;;3.90;1.73;;;;;;;11.95;100.00;102003.50;6221925;28;20069;-70
2023/09/24 02:14:05;;;;;;;2.22;1.50;;;;;;;11.93;100.00;102005.31;6216066;28;20442;-70
2023/09/24 02:17:07;;;;;;;4.13;2.17;;;;;;;11.82;100.00;102002.22;6226033;28;20072;-70
2023/09/24 02:20:14;;;;;;;2.53;1.92;;;;;;;11.78;100.00;102012.00;6225595;28;20457;-70
2023/09/24 02:23:17;;;;;;;2.15;1.95;;;;;;;11.74;100.00;102001.63;6215075;28;20438;-70
2023/09/24 02:26:18;;;;;;;4.07;2.45;;;;;;;11.68;100.00;102015.91;6177289;28;20355;-70
2023/09/24 02:29:20;;;;;;;3.67;2.25;;;;;;;11.65;100.00;102014.22;6177478;28;20050;-71
2023/09/24 02:32:21;;;;;;;3.83;2.63;;;;;;;11.61;100.00;102015.25;6177424;28;20061;-70
2023/09/24 02:35:23;;;;;;;3.78;2.08;;;;;;;11.60;100.00;102015.31;6177503;28;20054;-71
2023/09/24 02:38:26;;;;;;;3.22;2.25;;;;;;;11.59;100.00;102018.88;6177391;28;20062;-71
2023/09/24 02:41:28;;;;;;;3.25;2.17;;;;;;;11.58;100.00;102020.66;6177007;28;20347;-71
2023/09/24 02:44:30;;;;;;;4.38;2.90;;;;;;;11.55;100.00;102031.28;6208260;28;20050;-71
2023/09/24 02:47:33;;;;;;;6.18;3.55;;;;;;;11.54;100.00;102032.22;6243183;23;20050;-73
2023/09/24 02:50:35;;;;;;;4.43;2.55;;;;;;;11.54;100.00;102041.88;6198807;28;20673;-73
2023/09/24 02:53:38;;;;;;;6.25;2.60;;;;;;;11.52;100.00;102038.44;6227394;28;20046;-73
2023/09/24 02:56:39;;;;;;;7.15;2.50;;;;;;;11.50;100.00;102035.88;6236188;28;20046;-73
2023/09/24 02:59:41;;;;;;;4.57;2.58;;;;;;;11.48;100.00;102045.56;6225139;28;20064;-73
2023/09/24 03:02:42;;;;;;;4.65;2.97;;;;;;;11.43;100.00;102047.53;6225240;28;20358;-73
2023/09/24 03:05:44;;;;;;;5.07;3.20;;;;;;;11.42;100.00;102045.81;6225222;28;20438;-73
2023/09/24 03:08:49;;;;;;;4.78;3.13;;;;;;;11.41;100.00;102047.59;6225684;28;20354;-73
2023/09/24 03:11:50;;;;;;;5.20;2.55;;;;;;;11.47;100.00;102048.28;6230144;28;20053;-73
2023/09/24 03:14:52;;;;;;;4.15;2.85;;;;;;;11.55;100.00;102059.41;6229789;28;20053;-73
2023/09/24 03:17:54;;;;;;;3.97;3.00;;;;;;;11.61;100.00;102060.00;6229226;28;20050;-73
2023/09/24 03:20:57;;;;;;;5.22;3.00;;;;;;;11.68;100.00;102063.31;6242409;28;20053;-73
2023/09/24 03:24:02;;;;;;;7.53;4.40;;;;;;;11.75;100.00;102070.03;6240169;28;20049;-73
2023/09/24 03:27:03;;;;;;;7.78;4.90;;;;;;;11.88;100.00;102078.38;6243449;28;20061;-73
2023/09/24 03:30:07;;;;;;;9.27;5.18;;;;;;;11.97;100.00;102075.41;6253446;28;20045;-73
2023/09/24 03:33:09;;;;;;;9.52;5.25;;;;;;;12.05;100.00;102072.50;6254102;28;20088;-73
2023/09/24 03:36:10;;;;;;;14.75;7.05;;;;;;;12.14;100.00;102078.25;6253688;28;20053;-73
2023/09/24 03:39:14;;;;;;;12.63;6.88;;;;;;;12.21;100.00;102078.88;6253455;28;20049;-73
2023/09/24 03:42:15;;;;;;;12.30;7.10;;;;;;;12.21;100.00;102080.66;6253589;28;20353;-73
2023/09/24 03:45:17;;;;;;;16.08;8.27;;;;;;;12.27;100.00;102085.69;6253446;28;20050;-75
2023/09/24 03:48:20;;;;;;;22.48;8.52;;;;;;;12.30;100.00;102086.41;6253279;28;20045;-73
2023/09/24 03:51:22;;;;;;;15.95;8.38;;;;;;;12.36;100.00;102098.53;6247287;28;20049;-73
2023/09/24 03:54:25;;;;;;;18.58;7.47;;;;;;;12.37;100.00;102106.34;6245077;28;20049;-73
2023/09/24 03:57:28;;;;;;;13.93;7.40;;;;;;;12.35;100.00;102102.06;6253315;28;20121;-73
2023/09/24 04:00:31;;;;;;;16.77;7.97;;;;;;;12.39;100.00;102111.56;6252506;28;20050;-73
2023/09/24 04:03:33;;;;;;;16.55;7.60;;;;;;;12.39;100.00;102114.19;6244738;28;20136;-73
2023/09/24 04:06:34;;;;;;;12.75;7.28;;;;;;;12.42;100.00;102108.81;6253223;28;20060;-73
2023/09/24 04:09:37;;;;;;;20.50;9.40;;;;;;;12.24;100.00;102115.66;6252540;28;20565;-73
2023/09/24 04:12:38;;;;;;;16.00;8.38;;;;;;;12.33;100.00;102120.56;6253042;28;20054;-73
2023/09/24 04:15:39;;;;;;;18.55;8.70;;;;;;;12.27;100.00;102122.59;6252769;28;20049;-72
2023/09/24 04:18:43;;;;;;;20.40;9.65;;;;;;;12.18;100.00;102124.66;6252586;28;20476;-73
2023/09/24 04:21:45;;;;;;;20.75;10.60;;;;;;;12.21;100.00;102123.66;6251863;28;20054;-73
2023/09/24 04:24:50;;;;;;;18.15;8.95;;;;;;;12.33;100.00;102125.84;6252779;28;20053;-71
2023/09/24 04:27:52;;;;;;;17.77;8.32;;;;;;;12.41;100.00;102125.56;6252624;28;20041;-73
2023/09/24 04:30:53;;;;;;;17.00;8.02;;;;;;;12.39;100.00;102130.00;6252118;28;20350;-73
2023/09/24 04:33:55;;;;;;;18.25;8.82;;;;;;;12.46;100.00;102135.94;6252406;28;20076;-73
2023/09/24 04:36:56;;;;;;;17.73;7.72;;;;;;;12.47;100.00;102141.13;6252172;28;20049;-73
2023/09/24 04:39:59;;;;;;;19.40;6.93;;;;;;;12.53;100.00;102142.66;6252101;28;20465;-73
2023/09/24 04:43:00;;;;;;;14.05;7.57;;;;;;;12.55;100.00;102140.84;6252331;28;20239;-73
2023/09/24 04:46:04;;;;;;;13.32;7.43;;;;;;;12.56;100.00;102146.03;6252162;28;20045;-70
2023/09/24 04:49:06;;;;;;;12.75;6.57;;;;;;;12.59;100.00;102151.22;6251719;28;20045;-73
2023/09/24 04:52:07;;;;;;;12.82;7.25;;;;;;;12.61;100.00;102161.69;6252134;28;20057;-71
2023/09/24 04:55:11;;;;;;;12.30;6.47;;;;;;;12.62;100.00;102166.03;6251797;28;20327;-70
2023/09/24 04:58:12;;;;;;;22.58;8.75;;;;;;;12.54;100.00;102174.28;6251531;28;20053;-73
2023/09/24 05:01:14;;;;;;;16.30;8.68;;;;;;;12.58;100.00;102182.91;6251530;28;20045;-73
2023/09/24 05:04:16;;;;;;;15.40;7.05;;;;;;;12.61;100.00;102175.72;6251831;28;20049;-73
2023/09/24 05:07:18;;;;;;;15.32;7.88;;;;;;;12.62;100.00;102187.13;6251471;28;20057;-73
2023/09/24 05:10:21;;;;;;;17.55;8.45;;;;;;;12.63;100.00;102196.78;6251250;28;20457;-73
2023/09/24 05:13:23;;;;;;;15.98;7.97;;;;;;;12.57;100.00;102200.50;6251605;28;20052;-73
2023/09/24 05:16:24;;;;;;;20.63;9.55;;;;;;;12.45;100.00;102208.91;6251329;28;20045;-72
2023/09/24 05:19:25;;;;;;;22.85;10.18;;;;;;;12.46;100.00;102210.59;6242766;28;20147;-72
2023/09/24 05:22:27;;;;;;;22.50;9.90;;;;;;;12.38;100.00;102215.31;6237863;28;20045;-72
2023/09/24 05:25:34;;;;;;;18.25;8.48;;;;;;;12.29;100.00;102208.59;6244266;28;20457;-72
2023/09/24 05:28:35;;;;;;;19.92;8.68;;;;;;;12.23;100.00;102218.53;6241695;28;20052;-72
2023/09/24 05:31:37;;;;;;;20.50;9.48;;;;;;;12.22;100.00;102222.03;6236949;28;20485;-72
2023/09/24 05:34:39;;;;;;;21.15;9.15;;;;;;;12.24;100.00;102218.44;6242773;28;20050;-72
2023/09/24 05:37:40;;;;;;;22.10;10.05;;;;;;;12.20;100.00;102224.75;6251126;28;20135;-72
2023/09/24 05:40:43;;;;;;;17.98;9.07;;;;;;;12.21;100.00;102222.97;6250687;28;20495;-72
2023/09/24 05:43:47;;;;;;;19.25;8.30;;;;;;;12.29;100.00;102231.47;6250777;28;20376;-73
2023/09/24 05:46:48;;;;;;;18.08;7.55;;;;;;;12.34;100.00;102234.78;6232613;28;20049;-71
2023/09/24 05:49:51;;;;;;;16.55;8.45;;;;;;;12.28;100.00;102242.94;6206704;28;20072;-71
2023/09/24 05:52:52;;;;;;;21.63;9.45;;;;;;;12.25;100.00;102240.41;6202096;28;20058;-71
2023/09/24 05:55:55;;;;;;;20.85;9.48;;;;;;;12.26;100.00;102248.22;6201911;28;20125;-71
2023/09/24 05:58:57;;;;;;;22.23;10.35;;;;;;;12.25;100.00;102258.84;6224715;28;20048;-71
2023/09/24 06:01:58;;;;;;;19.52;9.10;;;;;;;12.33;100.00;102256.78;6247251;28;20061;-73
2023/09/24 06:05:00;;;;;;;21.15;8.90;;;;;;;12.39;100.00;102260.06;6250687;28;20056;-71
2023/09/24 06:08:02;;;;;;;24.90;10.45;;;;;;;12.40;100.00;102258.31;6250326;28;20056;-71
2023/09/24 06:11:05;;;;;;;22.52;9.63;;;;;;;12.42;100.00;102265.22;6250258;28;20124;-71
2023/09/24 06:14:08;;;;;;;19.20;8.88;;;;;;;12.46;100.00;102263.34;6250336;28;20049;-71
2023/09/24 06:17:09;;;;;;;18.83;8.75;;;;;;;12.47;100.00;102270.34;6250215;28;20477;-72
2023/09/24 06:20:12;;;;;;;14.60;7.53;;;;;;;12.49;100.00;102276.44;6250037;28;20049;-72
2023/09/24 06:23:14;;;;;;;17.40;7.10;;;;;;;12.52;100.00;102283.34;6242974;28;20139;-72
2023/09/24 06:26:19;;;;;;;15.55;7.15;;;;;;;12.61;100.00;102277.72;6241912;28;20045;-72
2023/09/24 06:29:20;;;;;;;19.48;7.07;;;;;;;12.67;100.00;102286.28;6250134;28;20140;-72
2023/09/24 06:32:21;;;;;;;11.63;6.30;;;;;;;12.74;100.00;102286.91;6221561;28;20050;-72
2023/09/24 06:35:23;;;;;;;12.40;6.38;;;;;;;12.77;100.00;102292.06;6212511;28;20054;-72
2023/09/24 06:38:24;;;;;;;15.43;7.55;;;;;;;12.81;100.00;102303.34;6203775;28;20049;-73
2023/09/24 06:41:28;;;;;;;14.85;7.05;;;;;;;12.75;100.00;102293.91;6207818;28;20053;-73
2023/09/24 06:44:30;;;;;;;12.57;7.10;;;;;;;12.81;100.00;102304.25;6223345;28;20042;-72
2023/09/24 06:47:31;;;;;;;15.48;5.85;;;;;;;12.81;100.00;102314.78;6217051;28;20052;-72
2023/09/24 06:50:34;;;;;;;13.10;5.75;;;;;;;12.80;100.00;102318.31;6217825;28;20473;-72
2023/09/24 06:53:38;;;;;;;14.98;6.85;;;;;;;12.81;100.00;102329.72;6227282;28;20053;-72
2023/09/24 06:56:41;;;;;;;9.50;5.47;;;;;;;12.81;100.00;102330.63;6230451;28;20050;-73
2023/09/24 06:59:42;;;;;;;14.57;5.75;;;;;;;12.85;100.00;102341.91;6229691;28;20075;-73
2023/09/24 07:02:44;;;;;;;13.57;5.60;;;;;;;12.78;100.00;102328.09;6240880;28;20065;-73
2023/09/24 07:05:45;;;;;;;11.07;5.25;;;;;;;12.82;100.00;102321.78;6254462;28;20053;-72
2023/09/24 07:08:47;;;;;;;12.43;5.03;;;;;;;12.95;100.00;102325.69;6254014;28;20053;-73
2023/09/24 07:11:49;;;;;;;11.85;4.75;;;;;;;13.06;100.00;102330.53;6254462;28;20064;-73
2023/09/24 07:14:51;;;;;;;8.70;4.38;;;;;;;13.12;100.00;102329.44;6254317;28;20049;-72
2023/09/24 07:17:52;;;;;;;13.13;5.55;;;;;;;13.18;100.00;102331.84;6254281;28;20046;-73
2023/09/24 07:20:54;;;;;;;10.15;5.53;;;;;;;13.20;100.00;102336.13;6253887;28;20053;-73
2023/09/24 07:23:56;;;;;;;13.35;5.05;;;;;;;13.20;100.00;102337.94;6254092;28;20446;-73
2023/09/24 07:27:02;;;;;;;10.45;5.53;;;;;;;13.25;100.00;102348.34;6253831;28;20068;-73
2023/09/24 07:30:05;;;;;;;7.55;4.13;;;;;;;13.31;100.00;102356.03;6253973;28;20045;-73
2023/09/24 07:33:08;;;;;;;7.20;4.25;;;;;;;13.38;100.00;102353.06;6253848;28;20360;-73
2023/09/24 07:36:10;;;;;;;10.05;5.05;;;;;;;13.41;100.00;102360.88;6254135;28;20041;-72
2023/09/24 07:39:11;;;;;;;13.60;6.15;;;;;;;13.38;100.00;102362.78;6253487;28;20049;-72
2023/09/24 07:42:14;;;;;;;10.45;5.40;;;;;;;13.46;100.00;102360.72;6253643;28;20064;-72
2023/09/24 07:45:15;;;;;;;13.95;6.00;;;;;;;13.51;100.00;102374.59;6253453;28;20053;-71
2023/09/24 07:48:17;;;;;;;8.55;5.35;;;;;;;13.53;100.00;102367.44;6233696;28;20468;-72
2023/09/24 07:51:18;;;;;;;9.60;5.43;;;;;;;13.51;100.00;102374.59;6234929;28;20054;-71
2023/09/24 07:54:19;;;;;;;10.43;5.70;;;;;;;13.58;100.00;102367.28;6219421;28;20060;-71
2023/09/24 07:57:22;;;;;;;9.35;5.10;;;;;;;13.67;100.00;102365.16;6219501;28;20052;-71
2023/09/24 08:00:24;;;;;;;10.18;5.72;;;;;;;13.68;100.00;102369.50;6228211;28;20605;-71
2023/09/24 08:03:26;;;;;;;13.30;5.47;;;;;;;13.71;100.00;102374.63;6227824;28;20389;-71
2023/09/24 08:06:28;;;;;;;8.35;5.28;;;;;;;13.71;100.00;102372.00;6204075;28;20046;-71
2023/09/24 08:09:30;;;;;;;9.70;4.72;;;;;;;13.78;100.00;102375.25;6209679;28;20600;-71
2023/09/24 08:12:33;;;;;;;8.90;4.28;;;;;;;13.92;100.00;102366.78;6228670;28;20050;-70
2023/09/24 08:15:34;;;;;;;12.50;5.47;;;;;;;13.98;100.00;102368.28;6228201;28;20057;-70
2023/09/24 08:18:36;;;;;;;7.50;4.45;;;;;;;14.09;100.00;102369.56;6228127;28;20053;-71
2023/09/24 08:21:38;;;;;;;7.93;4.45;;;;;;;14.15;100.00;102376.38;6222034;28;20052;-71
2023/09/24 08:24:40;;;;;;;9.27;4.25;;;;;;;14.29;100.00;102375.78;6228339;28;20057;-70
2023/09/24 08:27:44;;;;;;;7.55;4.07;;;;;;;14.43;100.00;102387.50;6238441;28;20114;-70
2023/09/24 08:30:45;;;;;;;6.65;3.50;;;;;;;14.42;100.00;102391.06;6247001;28;20057;-70
2023/09/24 08:33:47;;;;;;;11.40;4.95;;;;;;;14.46;100.00;102395.31;6252497;28;20061;-70
2023/09/24 08:36:48;;;;;;;8.18;4.47;;;;;;;14.43;100.00;102402.50;6252583;28;20053;-71
2023/09/24 08:39:50;;;;;;;9.38;3.58;;;;;;;14.52;100.00;102402.16;6252038;28;20049;-70
2023/09/24 08:42:55;;;;;;;9.00;4.85;;;;;;;14.58;100.00;102406.31;6244574;28;20042;-70
2023/09/24 08:45:57;;;;;;;10.18;5.20;;;;;;;14.57;100.00;102415.19;6244042;28;20061;-70
2023/09/24 08:48:59;;;;;;;9.52;3.95;;;;;;;14.57;100.00;102412.53;6251585;28;20097;-70
2023/09/24 08:52:03;;;;;;;9.05;3.75;;;;;;;14.70;100.00;102413.72;6252162;28;20046;-71
2023/09/24 08:55:06;;;;;;;6.22;3.92;;;;;;;14.75;100.00;102400.28;6247628;28;20045;-70
2023/09/24 08:58:09;;;;;;;6.00;4.03;;;;;;;14.71;100.00;102400.41;6227447;28;20054;-71
2023/09/24 09:01:11;;;;;;;8.15;4.82;;;;;;;14.68;100.00;102405.84;6226986;28;20069;-70
2023/09/24 09:04:12;;;;;;;5.35;3.47;;;;;;;14.73;100.00;102397.72;6227276;28;20050;-71
2023/09/24 09:07:13;;;;;;;6.53;3.45;;;;;;;14.79;100.00;102397.44;6226356;28;20461;-70
2023/09/24 09:10:15;;;;;;;7.10;3.72;;;;;;;14.92;100.00;102390.66;6226927;28;20147;-70
2023/09/24 09:13:19;;;;;;;9.00;3.53;;;;;;;14.97;100.00;102385.16;6241924;28;20045;-71
2023/09/24 09:16:20;;;;;;;6.85;3.85;;;;;;;15.06;100.00;102386.53;6251759;28;20052;-70
2023/09/24 09:19:22;;;;;;;6.70;2.88;;;;;;;15.15;100.00;102379.00;6251060;28;20049;-70
2023/09/24 09:22:26;;;;;;;9.00;3.60;;;;;;;15.23;100.00;102386.59;6251574;28;20115;-70
2023/09/24 09:25:27;;;;;;;8.60;4.03;;;;;;;15.27;100.00;102374.09;6251290;28;20056;-70
2023/09/24 09:28:31;;;;;;;4.13;2.75;;;;;;;15.26;100.00;102382.94;6233306;28;20046;-71
2023/09/24 09:31:48;;;;;;;5.43;2.70;;;;;;;15.14;100.00;102376.44;6226666;28;20052;-70
2023/09/24 09:34:53;;;;;;;4.75;2.50;;;;;;;15.21;100.00;102384.03;6226769;28;20104;-70
2023/09/24 09:37:54;;;;;;;3.95;2.35;;;;;;;15.32;100.00;102372.94;6226535;28;20065;-70
2023/09/24 09:40:57;;;;;;;7.30;2.50;;;;;;;15.45;100.00;102378.50;6222116;28;20057;-72
2023/09/24 09:44:05;;;;;;;7.32;2.78;;;;;;;15.42;100.00;102376.84;6226887;28;20065;-70
2023/09/24 09:47:09;;;;;;;4.35;1.98;;;;;;;15.47;100.00;102372.19;6235521;28;20433;-70
2023/09/24 09:50:14;;;;;;;5.93;2.30;;;;;;;15.56;100.00;102370.91;6230844;28;20045;-72
2023/09/24 09:53:19;;;;;;;4.85;2.40;;;;;;;15.57;100.00;102366.44;6238024;28;20052;-72
2023/09/24 09:56:21;;;;;;;5.97;2.40;;;;;;;15.57;100.00;102366.44;6250053;28;20049;-72
2023/09/24 09:59:24;;;;;;;3.50;1.88;;;;;;;15.65;100.00;102373.13;6237830;28;20049;-72
2023/09/24 10:02:28;;;;;;;3.63;2.30;;;;;;;15.58;100.00;102363.75;6240895;28;20045;-72
2023/09/24 10:05:31;;;;;;;7.13;2.53;;;;;;;15.56;100.00;102362.94;6250619;23;20042;-71
2023/09/24 10:08:37;;;;;;;3.20;2.13;;;;;;;15.55;100.00;102363.88;6246070;28;20141;-71
2023/09/24 10:11:51;;;;;;;4.30;1.90;;;;;;;15.55;100.00;102355.94;6237832;28;20046;-71
2023/09/24 10:14:56;;;;;;;3.67;2.35;;;;;;;15.68;100.00;102359.75;6231552;28;20042;-71
2023/09/24 10:18:23;;;;;;;4.90;1.80;;;;;;;15.69;100.00;102353.50;6213442;28;20054;-70
2023/09/24 10:21:30;;;;;;;5.40;2.83;;;;;;;15.72;100.00;102352.50;6212977;28;20046;-71
2023/09/24 10:24:41;;;;;;;5.65;2.17;;;;;;;15.77;100.00;102353.13;6194036;28;20061;-70
2023/09/24 10:28:02;;;;;;;5.55;2.22;;;;;;;15.88;100.00;102353.44;6212539;28;20046;-72
2023/09/24 10:31:06;;;;;;;3.15;2.08;;;;;;;15.91;100.00;102352.44;6189934;28;20054;-69
2023/09/24 10:34:07;;;;;;;8.80;2.45;;;;;;;16.06;100.00;102353.47;6207421;28;20137;-70
2023/09/24 10:37:09;;;;;;;7.03;2.53;;;;;;;16.24;100.00;102352.53;6208977;28;20042;-71
2023/09/24 10:40:13;;;;;;;7.70;2.28;;;;;;;16.33;100.00;102348.53;6207288;28;20058;-70
2023/09/24 10:43:21;;;;;;;5.15;2.00;;;;;;;16.31;100.00;102345.13;6208529;28;20053;-70
2023/09/24 10:46:29;;;;;;;6.20;1.90;;;;;;;16.46;100.00;102355.78;6197938;28;20050;-71
2023/09/24 10:49:31;;;;;;;3.42;2.00;;;;;;;16.49;100.00;102339.69;6200166;28;20125;-70
2023/09/24 10:52:46;;;;;;;5.63;2.28;;;;;;;16.43;100.00;102347.09;6199302;28;20047;-70
2023/09/24 10:55:48;;;;;;;5.25;1.88;;;;;;;16.52;100.00;102343.13;6197187;28;20420;-70
2023/09/24 10:58:50;;;;;;;4.53;2.35;;;;;;;16.59;100.00;102349.81;6193920;28;20049;-71
2023/09/24 11:01:52;;;;;;;3.80;2.10;;;;;;;16.60;100.00;102349.72;6201192;28;20046;-71
2023/09/24 11:04:54;;;;;;;3.47;1.90;;;;;;;16.63;100.00;102340.75;6205425;28;20050;-70
2023/09/24 11:07:56;;;;;;;3.45;1.67;;;;;;;16.76;100.00;102335.66;6204447;28;20437;-70
2023/09/24 11:10:57;;;;;;;4.90;1.90;;;;;;;16.95;100.00;102331.94;6210504;28;20105;-71
2023/09/24 11:14:13;;;;;;;8.07;2.40;;;;;;;17.09;100.00;102338.28;6219379;28;20057;-71
2023/09/24 11:17:16;;;;;;;10.25;2.63;;;;;;;17.31;100.00;102335.31;6221646;28;20063;-71
2023/09/24 11:20:20;;;;;;;6.13;2.35;;;;;;;17.42;100.00;102333.75;6220434;28;20053;-70
2023/09/24 11:23:22;;;;;;;4.95;1.83;;;;;;;17.67;100.00;102327.88;6222173;28;20122;-70
2023/09/24 11:26:28;;;;;;;4.13;1.77;;;;;;;17.80;100.00;102333.34;6228710;28;20481;-70
2023/09/24 11:29:29;;;;;;;6.60;1.95;;;;;;;17.92;100.00;102332.66;6228843;28;20046;-70
2023/09/24 11:32:32;;;;;;;7.07;2.15;;;;;;;17.89;100.00;102331.97;6221083;28;20046;-70
2023/09/24 11:35:38;;;;;;;4.18;1.90;;;;;;;18.05;100.00;102323.94;6229542;28;20060;-70
2023/09/24 11:38:40;;;;;;;5.82;1.80;;;;;;;18.32;100.00;102324.94;6229140;28;20049;-70
2023/09/24 11:41:46;;;;;;;4.03;1.40;;;;;;;18.55;100.00;102320.03;6229018;28;20503;-70
2023/09/24 11:44:47;;;;;;;2.67;1.80;;;;;;;18.84;100.00;102312.88;6220717;28;20358;-72
2023/09/24 11:47:50;;;;;;;5.57;1.65;;;;;;;19.08;100.00;102316.69;6229125;28;20046;-73
2023/09/24 11:50:53;;;;;;;5.22;1.88;;;;;;;19.02;100.00;102312.56;6218799;28;20042;-72
2023/09/24 11:53:54;;;;;;;2.28;1.30;;;;;;;18.97;100.00;102313.81;6215869;28;20378;-72
2023/09/24 11:56:56;;;;;;;2.10;1.02;;;;;;;19.17;100.00;102313.41;6215960;28;20350;-70
2023/09/24 11:59:57;;;;;;;2.60;1.30;;;;;;;19.25;100.00;102313.75;6228173;28;20050;-72
2023/09/24 12:03:01;;;;;;;4.88;1.55;;;;;;;19.52;100.00;102307.56;6220593;28;20046;-72
2023/09/24 12:06:03;;;;;;;2.80;1.27;;;;;;;19.66;100.00;102309.34;6220716;28;20050;-72
2023/09/24 12:09:05;;;;;;;5.68;1.15;;;;;;;19.74;100.00;102307.88;6228326;28;20129;-72
2023/09/24 12:12:06;;;;;;;2.00;1.20;;;;;;;19.67;100.00;102305.75;6228689;28;20046;-72
2023/09/24 12:15:08;;;;;;;2.67;1.08;;;;;;;20.00;100.00;102306.13;6228785;28;20089;-72
2023/09/24 12:18:12;;;;;;;3.30;1.00;;;;;;;20.24;100.00;102308.06;6228227;28;20046;-72
2023/09/24 12:21:14;;;;;;;2.55;1.25;;;;;;;20.50;100.00;102306.28;6228072;28;20472;-72
2023/09/24 12:24:15;;;;;;;3.67;0.80;;;;;;;20.65;100.00;102304.34;6228186;28;20053;-71
2023/09/24 12:27:17;;;;;;;4.07;1.40;;;;;;;20.54;100.00;102301.59;6228163;28;20050;-71
2023/09/24 12:30:18;;;;;;;4.05;1.50;;;;;;;20.54;100.00;102294.44;6227768;28;20054;-71
2023/09/24 12:33:21;;;;;;;1.42;0.88;;;;;;;20.78;100.00;102303.34;6227840;28;20046;-71
2023/09/24 12:36:23;;;;;;;3.78;1.33;;;;;;;21.09;100.00;102293.13;6227807;28;20350;-71
2023/09/24 12:39:24;;;;;;;2.15;0.80;;;;;;;21.23;100.00;102295.63;6227773;28;20046;-71
2023/09/24 12:42:30;;;;;;;5.47;0.75;;;;;;;21.21;100.00;102300.25;6227193;28;20121;-71
2023/09/24 12:45:32;;;;;;;4.20;0.93;;;;;;;21.10;100.00;102289.47;6227588;28;20355;-71
2023/09/24 12:48:35;;;;;;;1.00;0.80;;;;;;;21.26;98.20;102284.72;6227777;28;20058;-71
2023/09/24 12:51:37;;;;;;;5.05;0.90;;;;;;;21.65;89.99;102287.22;6227279;28;20076;-71
2023/09/24 12:54:39;;;;;;;3.75;0.77;;;;;;;21.95;90.19;102284.03;6219447;28;20046;-71
2023/09/24 12:57:40;;;;;;;2.00;0.70;;;;;;;22.04;76.64;102278.81;6227679;28;20104;-71
2023/09/24 13:00:42;;;;;;;0.90;0.52;;;;;;;22.14;60.90;102278.97;6227255;28;20056;-71
2023/09/24 13:03:44;;;;;;;1.80;0.60;;;;;;;22.10;57.77;102276.63;6227045;28;20053;-71
2023/09/24 13:06:46;;;;;;;1.48;0.80;;;;;;;22.12;56.56;102280.06;6227444;28;20637;-71
2023/09/24 13:09:47;;;;;;;6.57;3.63;;;;;;;22.14;56.39;102283.47;6227186;28;20057;-71
2023/09/24 13:12:49;;;;;;;3.53;1.52;;;;;;;22.27;60.37;102273.50;6227052;28;20064;-71
2023/09/24 13:15:50;;;;;;;2.15;0.85;;;;;;;22.21;56.08;102271.28;6221406;28;20060;-71
2023/09/24 13:18:53;;;;;;;1.85;0.50;;;;;;;22.36;54.60;102277.28;6214513;28;20049;-71
2023/09/24 13:21:55;;;;;;;5.35;0.93;;;;;;;22.53;58.03;102277.66;6207880;28;20046;-70
2023/09/24 13:24:57;;;;;;;2.38;0.57;;;;;;;22.63;55.10;102282.28;6213529;28;20132;-76
2023/09/24 13:27:58;;;;;;;0.90;0.60;;;;;;;22.62;56.54;102280.56;6218681;28;20042;-78
2023/09/24 13:31:00;;;;;;;3.88;0.85;;;;;;;22.52;57.54;102281.28;6226313;28;20076;-78
2023/09/24 13:34:04;;;;;;;0.98;0.40;;;;;;;22.64;57.39;102279.47;6218226;28;20366;-71
2023/09/24 13:37:05;;;;;;;1.50;0.60;;;;;;;22.75;56.83;102281.28;6211550;28;20046;-71
2023/09/24 13:40:11;;;;;;;1.05;0.38;;;;;;;22.96;56.60;102282.25;6226192;28;20077;-71
2023/09/24 13:43:12;;;;;;;0.85;0.40;;;;;;;23.09;55.00;102273.22;6220947;28;20046;-71
2023/09/24 13:46:14;;;;;;;1.23;0.50;;;;;;;22.91;53.01;102271.06;6224497;28;20050;-71
2023/09/24 13:49:16;;;;;;;2.35;0.47;;;;;;;23.01;53.66;102266.66;6224940;28;20050;-71
2023/09/24 13:52:18;;;;;;;2.05;0.60;;;;;;;23.07;54.14;102272.47;6218067;28;20046;-71
2023/09/24 13:55:19;;;;;;;2.45;0.77;;;;;;;22.66;52.15;102273.97;6218116;28;20065;-71